createdAt,value
2023-03-27T00:42:14.090Z,6.20
2023-03-27T00:45:15.162Z,10.25
2023-03-27T00:48:45.496Z,5.65
2023-03-27T00:54:55.316Z,8.73
2023-03-27T00:57:33.365Z,7.03
2023-03-27T01:00:18.235Z,6.35
2023-03-27T01:02:57.176Z,10.07
2023-03-27T01:05:49.297Z,9.93
2023-03-27T01:08:25.964Z,8.73
2023-03-27T01:11:13.454Z,12.43
2023-03-27T01:14:10.593Z,11.98
2023-03-27T01:16:47.097Z,9.15
2023-03-27T01:20:20.616Z,4.35
2023-03-27T01:23:35.929Z,8.80
2023-03-27T01:26:51.375Z,7.00
2023-03-27T01:30:02.322Z,15.02
2023-03-27T01:32:55.884Z,9.77
2023-03-27T01:36:05.694Z,12.15
2023-03-27T01:38:45.934Z,9.07
2023-03-27T01:41:35.302Z,7.70
2023-03-27T01:44:43.378Z,13.10
2023-03-27T01:47:41.863Z,11.82
2023-03-27T01:50:33.818Z,9.80
2023-03-27T01:53:22.168Z,8.32
2023-03-27T01:56:11.703Z,11.60
2023-03-27T01:58:56.645Z,10.27
2023-03-27T02:01:44.602Z,10.15
2023-03-27T02:04:24.234Z,7.18
2023-03-27T02:07:18.109Z,8.07
2023-03-27T02:10:00.371Z,10.27
2023-03-27T02:12:36.443Z,9.40
2023-03-27T02:15:23.502Z,13.20
2023-03-27T02:18:08.705Z,8.98
2023-03-27T02:20:49.212Z,8.55
2023-03-27T02:23:31.986Z,11.32
2023-03-27T02:26:03.828Z,8.88
2023-03-27T02:29:01.274Z,10.30
2023-03-27T02:31:57.632Z,8.23
2023-03-27T02:34:43.319Z,10.73
2023-03-27T02:37:32.162Z,9.20
2023-03-27T02:40:57.748Z,8.35
2023-03-27T02:44:46.839Z,9.82
2023-03-27T02:47:40.953Z,9.68
2023-03-27T02:51:09.620Z,10.57
2023-03-27T02:53:48.253Z,9.10
2023-03-27T02:56:23.345Z,9.15
2023-03-27T02:59:10.076Z,7.25
2023-03-27T03:01:44.641Z,9.20
2023-03-27T03:04:59.311Z,9.13
2023-03-27T03:07:39.896Z,6.57
2023-03-27T03:10:17.364Z,7.18
2023-03-27T03:12:59.367Z,7.60
2023-03-27T03:15:33.144Z,8.90
2023-03-27T03:18:05.738Z,6.45
2023-03-27T03:20:40.924Z,8.10
2023-03-27T03:23:11.857Z,10.35
2023-03-27T03:25:43.087Z,9.32
2023-03-27T03:28:19.629Z,13.48
2023-03-27T03:30:52.073Z,9.23
2023-03-27T03:33:25.422Z,9.23
2023-03-27T03:35:56.697Z,5.20
2023-03-27T03:38:37.622Z,8.00
2023-03-27T03:41:18.602Z,9.00
2023-03-27T03:43:55.159Z,8.43
2023-03-27T03:46:28.828Z,9.48
2023-03-27T03:49:00.110Z,10.20
2023-03-27T03:51:33.256Z,7.43
2023-03-27T03:54:04.141Z,7.88
2023-03-27T03:57:06.654Z,8.00
2023-03-27T03:59:40.700Z,7.97
2023-03-27T04:02:33.504Z,7.97
2023-03-27T04:05:14.809Z,9.15
2023-03-27T04:07:48.630Z,9.27
2023-03-27T04:10:31.823Z,9.48
2023-03-27T04:13:05.582Z,11.93
2023-03-27T04:15:43.060Z,8.98
2023-03-27T04:18:33.836Z,7.68
2023-03-27T04:21:15.714Z,11.07
2023-03-27T04:23:52.662Z,11.23
2023-03-27T04:26:35.957Z,8.90
2023-03-27T04:29:35.917Z,10.15
2023-03-27T04:32:11.964Z,10.60
2023-03-27T04:34:42.694Z,10.20
2023-03-27T04:37:45.631Z,12.63
2023-03-27T04:40:32.204Z,9.55
2023-03-27T04:43:03.287Z,9.38
2023-03-27T04:45:39.963Z,10.18
2023-03-27T04:48:11.281Z,10.55
2023-03-27T04:50:54.152Z,8.98
2023-03-27T04:53:39.716Z,10.30
2023-03-27T04:56:11.057Z,8.90
2023-03-27T04:58:48.892Z,11.45
2023-03-27T05:01:21.355Z,6.68
2023-03-27T05:04:10.772Z,7.88
2023-03-27T05:07:05.462Z,15.30
2023-03-27T05:09:37.778Z,9.77
2023-03-27T05:12:09.593Z,12.98
2023-03-27T05:14:50.021Z,10.05
2023-03-27T05:17:48.543Z,7.60
2023-03-27T05:20:23.560Z,12.57
2023-03-27T05:22:57.970Z,9.98
2023-03-27T05:25:30.895Z,10.30
2023-03-27T05:28:02.521Z,7.38
2023-03-27T05:30:35.763Z,12.68
2023-03-27T05:33:27.985Z,17.08
2023-03-27T05:35:58.924Z,7.53
2023-03-27T05:38:29.828Z,9.50
2023-03-27T05:41:13.084Z,9.55
2023-03-27T05:43:52.442Z,13.10
2023-03-27T05:46:27.622Z,8.73
2023-03-27T05:49:06.527Z,13.93
2023-03-27T05:51:39.062Z,10.27
2023-03-27T05:54:24.826Z,11.27
2023-03-27T05:57:08.181Z,10.52
2023-03-27T05:59:41.048Z,11.05
2023-03-27T06:02:23.375Z,11.43
2023-03-27T06:05:07.194Z,9.43
2023-03-27T06:07:43.963Z,9.82
2023-03-27T06:10:22.167Z,7.40
2023-03-27T06:13:24.235Z,12.98
2023-03-27T06:16:02.237Z,9.98
2023-03-27T06:18:55.398Z,10.30
2023-03-27T06:21:33.168Z,8.32
2023-03-27T06:24:06.323Z,11.60
2023-03-27T06:26:38.056Z,11.80
2023-03-27T06:29:09.790Z,8.43
2023-03-27T06:31:47.625Z,8.40
2023-03-27T06:34:36.553Z,5.60
2023-03-27T06:37:22.555Z,9.20
2023-03-27T06:39:52.945Z,7.45
2023-03-27T06:42:23.599Z,8.45
2023-03-27T06:45:01.135Z,9.30
2023-03-27T06:48:18.013Z,10.52
2023-03-27T06:50:56.342Z,7.70
2023-03-27T06:53:35.545Z,10.00
2023-03-27T06:56:08.948Z,11.50
2023-03-27T06:59:03.188Z,7.97
2023-03-27T07:01:34.173Z,10.13
2023-03-27T07:04:24.314Z,8.15
2023-03-27T07:07:14.636Z,8.68
2023-03-27T07:09:49.700Z,14.40
2023-03-27T07:12:24.378Z,9.98
2023-03-27T07:14:54.802Z,10.00
2023-03-27T07:17:42.118Z,10.30
2023-03-27T07:20:21.749Z,10.27
2023-03-27T07:22:56.123Z,8.75
2023-03-27T07:25:46.586Z,10.50
2023-03-27T07:28:25.693Z,7.90
2023-03-27T07:30:57.259Z,10.02
2023-03-27T07:33:28.336Z,10.95
2023-03-27T07:36:01.413Z,15.60
2023-03-27T07:38:50.209Z,8.90
2023-03-27T07:41:25.022Z,7.85
2023-03-27T07:44:02.043Z,9.05
2023-03-27T07:46:48.866Z,8.85
2023-03-27T07:49:39.440Z,7.20
2023-03-27T07:52:15.357Z,9.50
2023-03-27T07:55:00.699Z,10.60
2023-03-27T07:57:59.302Z,13.13
2023-03-27T08:00:36.691Z,10.52
2023-03-27T08:03:15.851Z,9.60
2023-03-27T08:06:05.143Z,10.60
2023-03-27T08:08:36.539Z,11.70
2023-03-27T08:11:16.121Z,9.13
2023-03-27T08:13:56.301Z,9.70
2023-03-27T08:16:32.177Z,11.10
2023-03-27T08:19:04.606Z,14.68
2023-03-27T08:21:38.363Z,12.90
2023-03-27T08:24:10.100Z,9.98
2023-03-27T08:26:59.860Z,9.95
2023-03-27T08:29:30.192Z,9.80
2023-03-27T08:32:03.531Z,11.50
2023-03-27T08:34:33.673Z,13.82
2023-03-27T08:37:04.467Z,7.78
2023-03-27T08:39:43.391Z,10.68
2023-03-27T08:42:22.432Z,7.47
2023-03-27T08:44:57.262Z,10.57
2023-03-27T08:47:57.753Z,10.48
2023-03-27T08:51:19.011Z,9.55
2023-03-27T08:54:28.713Z,8.45
2023-03-27T08:57:00.448Z,12.40
2023-03-27T08:59:33.133Z,10.68
2023-03-27T09:02:23.777Z,8.82
2023-03-27T09:05:28.633Z,9.60
2023-03-27T09:08:07.538Z,6.53
2023-03-27T09:10:50.773Z,7.50
2023-03-27T09:13:46.746Z,8.52
2023-03-27T09:16:36.101Z,10.23
2023-03-27T09:19:37.718Z,11.18
2023-03-27T09:22:13.202Z,8.82
2023-03-27T09:25:35.543Z,7.80
2023-03-27T09:28:32.954Z,9.25
2023-03-27T09:31:36.050Z,10.57
2023-03-27T09:34:16.940Z,12.40
2023-03-27T09:36:50.294Z,11.73
2023-03-27T09:39:25.094Z,8.77
2023-03-27T09:42:19.152Z,8.30
2023-03-27T09:44:58.965Z,8.15
2023-03-27T09:47:41.797Z,9.52
2023-03-27T09:50:25.015Z,6.72
2023-03-27T09:53:25.729Z,8.15
2023-03-27T09:56:18.943Z,7.00
2023-03-27T09:58:55.973Z,8.90
2023-03-27T10:01:38.544Z,7.07
2023-03-27T10:04:23.533Z,7.55
2023-03-27T10:07:11.634Z,8.18
2023-03-27T10:10:23.563Z,9.75
2023-03-27T10:13:06.690Z,11.50
2023-03-27T10:15:47.398Z,8.90
2023-03-27T10:18:29.664Z,11.32
2023-03-27T10:21:22.651Z,10.20
2023-03-27T10:23:54.524Z,4.25
2023-03-27T10:26:42.374Z,11.20
2023-03-27T10:29:39.086Z,13.45
2023-03-27T10:32:16.712Z,10.85
2023-03-27T10:35:00.998Z,8.40
2023-03-27T10:37:58.969Z,12.48
2023-03-27T10:40:40.553Z,7.38
2023-03-27T10:43:41.547Z,9.55
2023-03-27T10:46:33.744Z,8.25
2023-03-27T10:49:16.149Z,9.88
2023-03-27T10:52:06.256Z,9.15
2023-03-27T10:55:11.520Z,9.63
2023-03-27T10:57:48.626Z,10.38
2023-03-27T11:00:28.110Z,7.82
2023-03-27T11:03:16.957Z,14.60
2023-03-27T11:05:55.771Z,10.95
2023-03-27T11:09:03.359Z,15.15
2023-03-27T11:11:51.834Z,9.20
2023-03-27T11:15:03.579Z,10.80
2023-03-27T11:18:01.044Z,14.27
2023-03-27T11:20:59.375Z,12.25
2023-03-27T11:24:00.358Z,9.05
2023-03-27T11:27:13.851Z,48.92
2023-03-27T11:30:06.743Z,8.88
2023-03-27T11:33:27.756Z,10.18
2023-03-27T11:36:25.667Z,10.52
2023-03-27T11:39:22.699Z,9.40
2023-03-27T11:42:01.842Z,9.98
2023-03-27T11:44:33.472Z,10.60
2023-03-27T11:47:55.862Z,11.73
2023-03-27T11:50:54.948Z,9.65
2023-03-27T11:53:26.355Z,8.07
2023-03-27T11:56:44.783Z,5.88
2023-03-27T11:59:29.595Z,8.80
2023-03-27T12:02:22.303Z,11.52
2023-03-27T12:04:57.629Z,7.63
2023-03-27T12:08:00.650Z,8.80
2023-03-27T12:10:39.139Z,9.05
2023-03-27T12:13:41.630Z,9.40
2023-03-27T12:16:53.391Z,8.85
2023-03-27T12:19:44.446Z,6.85
2023-03-27T12:22:51.378Z,10.57
2023-03-27T12:25:48.682Z,12.38
2023-03-27T12:29:02.873Z,9.98
2023-03-27T12:32:51.654Z,33.35
2023-03-27T12:35:30.130Z,36.72
2023-03-27T12:38:08.433Z,26.23
2023-03-27T12:40:43.557Z,13.95
2023-03-27T12:43:25.858Z,10.88
2023-03-27T12:46:20.003Z,32.83
2023-03-27T12:49:10.538Z,50.50
2023-03-27T12:52:07.416Z,24.25
2023-03-27T12:55:19.241Z,25.48
2023-03-27T12:58:04.848Z,21.60
2023-03-27T13:01:08.341Z,53.20
2023-03-27T13:04:17.350Z,57.05
2023-03-27T13:07:07.348Z,44.10
2023-03-27T13:10:25.628Z,29.35
2023-03-27T13:13:24.498Z,48.90
2023-03-27T13:16:22.525Z,35.47
2023-03-27T13:19:25.676Z,55.50
2023-03-27T13:22:30.643Z,46.70
2023-03-27T13:25:15.339Z,75.55
2023-03-27T13:28:10.530Z,42.30
2023-03-27T13:30:53.741Z,63.58
2023-03-27T13:33:48.885Z,45.20
2023-03-27T13:36:34.253Z,40.50
2023-03-27T13:39:06.950Z,46.17
2023-03-27T13:41:47.601Z,31.98
2023-03-27T13:44:55.209Z,27.90
2023-03-27T13:47:37.826Z,41.50
2023-03-27T13:50:32.516Z,37.50
2023-03-27T13:53:43.689Z,30.52
2023-03-27T13:56:46.797Z,33.92
2023-03-27T13:59:29.660Z,36.92
2023-03-27T14:02:14.593Z,46.50
2023-03-27T14:04:58.982Z,30.58
2023-03-27T14:15:50.083Z,26.75
2023-03-27T14:19:16.590Z,29.55
2023-03-27T14:22:14.069Z,37.38
2023-03-27T14:25:07.541Z,32.00
2023-03-27T14:27:56.154Z,18.10
2023-03-27T14:30:32.154Z,22.08
2023-03-27T14:33:25.399Z,33.25
2023-03-27T14:36:05.304Z,31.30
2023-03-27T14:38:40.444Z,32.10
2023-03-27T14:41:28.217Z,31.55
2023-03-27T14:44:05.475Z,20.90
2023-03-27T14:46:50.360Z,32.85
2023-03-27T14:49:26.941Z,32.83
2023-03-27T14:52:05.394Z,29.63
2023-03-27T14:55:01.924Z,24.85
2023-03-27T14:57:39.285Z,25.50
2023-03-27T15:00:21.588Z,25.17
2023-03-27T15:02:55.965Z,26.63
2023-03-27T15:05:29.447Z,24.70
2023-03-27T15:08:04.713Z,27.30
2023-03-27T15:10:56.979Z,42.67
2023-03-27T15:13:42.452Z,44.42
2023-03-27T15:16:29.257Z,52.03
2023-03-27T15:19:11.040Z,36.55
2023-03-27T15:22:01.731Z,31.92
2023-03-27T15:24:33.775Z,22.35
2023-03-27T15:27:05.268Z,34.58
2023-03-27T15:29:45.428Z,29.58
2023-03-27T15:32:21.702Z,26.65
2023-03-27T15:35:04.849Z,29.63
2023-03-27T15:37:41.700Z,28.35
2023-03-27T15:40:15.523Z,34.83
2023-03-27T15:42:56.185Z,28.77
2023-03-27T15:45:40.469Z,26.23
2023-03-27T15:48:40.825Z,33.53
2023-03-27T15:51:22.723Z,64.85
2023-03-27T15:53:57.566Z,22.67
2023-03-27T15:57:09.377Z,25.80
2023-03-27T15:59:51.347Z,35.42
2023-03-27T16:02:28.702Z,27.90
2023-03-27T16:05:00.641Z,30.48
2023-03-27T16:07:37.232Z,33.92
2023-03-27T16:10:08.944Z,36.63
2023-03-27T16:12:44.786Z,40.58
2023-03-27T16:15:37.347Z,22.50
2023-03-27T16:18:26.054Z,26.67
2023-03-27T16:21:08.103Z,47.33
2023-03-27T16:23:39.993Z,34.40
2023-03-27T16:26:15.898Z,49.13
2023-03-27T16:28:47.543Z,53.55
2023-03-27T16:31:20.480Z,20.63
2023-03-27T16:33:50.960Z,33.47
2023-03-27T16:36:28.499Z,36.35
2023-03-27T16:39:00.380Z,31.65
2023-03-27T16:41:32.185Z,58.72
2023-03-27T16:44:04.601Z,27.25
2023-03-27T16:46:37.772Z,63.65
2023-03-27T16:49:09.001Z,38.17
2023-03-27T16:51:39.104Z,77.93
2023-03-27T16:54:09.180Z,34.30
2023-03-27T16:56:41.656Z,50.33
2023-03-27T16:59:11.951Z,29.45
2023-03-27T17:01:42.977Z,40.38
2023-03-27T17:04:13.716Z,34.05
2023-03-27T17:06:43.898Z,37.35
2023-03-27T17:09:16.122Z,55.50
2023-03-27T17:11:47.024Z,50.90
2023-03-27T17:14:18.328Z,53.38
2023-03-27T17:16:51.055Z,42.75
2023-03-27T17:19:23.009Z,26.58
2023-03-27T17:21:53.398Z,34.88
2023-03-27T17:24:24.336Z,60.90
2023-03-27T17:26:54.981Z,37.28
2023-03-27T17:29:26.240Z,37.38
2023-03-27T17:32:03.367Z,38.60
2023-03-27T17:34:34.944Z,53.50
2023-03-27T17:37:05.371Z,30.08
2023-03-27T17:39:36.666Z,59.88
2023-03-27T17:42:07.518Z,22.77
2023-03-27T17:44:40.290Z,35.80
2023-03-27T17:47:14.497Z,18.10
2023-03-27T17:49:46.433Z,26.05
2023-03-27T17:52:17.290Z,22.80
2023-03-27T17:54:48.891Z,26.98
2023-03-27T17:57:19.391Z,38.80
2023-03-27T17:59:50.264Z,31.98
2023-03-27T18:02:22.797Z,80.45
2023-03-27T18:04:55.692Z,33.50
2023-03-27T18:07:27.139Z,38.53
2023-03-27T18:09:58.101Z,46.00
2023-03-27T18:12:29.314Z,37.47
2023-03-27T18:15:00.831Z,52.20
2023-03-27T18:17:32.021Z,54.40
2023-03-27T18:20:03.318Z,34.47
2023-03-27T18:22:34.042Z,57.08
2023-03-27T18:25:05.735Z,34.72
2023-03-27T18:27:42.486Z,40.15
2023-03-27T18:30:15.908Z,25.55
2023-03-27T18:32:48.362Z,60.80
2023-03-27T18:35:21.311Z,41.78
2023-03-27T18:37:52.472Z,68.72
2023-03-27T18:40:22.826Z,34.45
2023-03-27T18:42:54.418Z,44.75
2023-03-27T18:45:25.461Z,42.05
2023-03-27T18:47:55.984Z,65.15
2023-03-27T18:50:27.012Z,66.25
2023-03-27T18:52:57.702Z,38.45
2023-03-27T18:55:28.990Z,40.00
2023-03-27T18:57:59.630Z,53.92
2023-03-27T19:00:30.158Z,42.33
2023-03-27T19:03:01.180Z,48.10
2023-03-27T19:05:32.669Z,62.05
2023-03-27T19:08:02.716Z,39.22
2023-03-27T19:10:35.950Z,46.42
2023-03-27T19:13:42.171Z,52.50
2023-03-27T19:16:33.240Z,66.63
2023-03-27T19:19:24.707Z,30.67
2023-03-27T19:21:55.730Z,44.35
2023-03-27T19:24:49.269Z,50.95
2023-03-27T19:27:23.558Z,45.45
2023-03-27T19:29:57.031Z,119.70
2023-03-27T19:32:27.380Z,30.77
2023-03-27T19:34:58.750Z,54.45
2023-03-27T19:37:31.117Z,69.57
2023-03-27T19:40:02.409Z,36.38
2023-03-27T19:42:34.230Z,60.83
2023-03-27T19:45:05.942Z,44.65
2023-03-27T19:47:37.914Z,63.42
2023-03-27T19:50:10.723Z,52.88
2023-03-27T19:53:05.431Z,38.78
2023-03-27T19:55:40.707Z,42.53
2023-03-27T19:58:13.758Z,43.85
2023-03-27T20:00:45.812Z,78.43
2023-03-27T20:03:17.951Z,57.13
2023-03-27T20:05:50.913Z,71.90
2023-03-27T20:08:23.632Z,60.35
2023-03-27T20:10:53.878Z,77.10
2023-03-27T20:13:25.285Z,57.88
2023-03-27T20:15:55.611Z,16.92
2023-03-27T20:18:26.491Z,33.22
2023-03-27T20:20:57.793Z,57.92
2023-03-27T20:23:34.548Z,62.10
2023-03-27T20:26:07.370Z,97.60
2023-03-27T20:28:40.604Z,49.03
2023-03-27T20:31:12.286Z,80.72
2023-03-27T20:33:42.735Z,46.80
2023-03-27T20:36:14.541Z,122.78
2023-03-27T20:38:44.896Z,60.42
2023-03-27T20:41:18.585Z,36.35
2023-03-27T20:43:50.369Z,117.05
2023-03-27T20:46:21.315Z,64.10
2023-03-27T20:48:53.494Z,47.80
2023-03-27T20:51:25.990Z,52.30
2023-03-27T20:53:59.547Z,81.15
2023-03-27T20:56:31.002Z,91.88
2023-03-27T20:59:01.469Z,77.80
2023-03-27T21:01:31.517Z,97.65
2023-03-27T21:04:03.548Z,45.83
2023-03-27T21:06:39.038Z,57.47
2023-03-27T21:09:11.813Z,64.75
2023-03-27T21:11:42.212Z,72.55
2023-03-27T21:14:16.159Z,56.90
2023-03-27T21:16:47.882Z,63.22
2023-03-27T21:19:18.505Z,61.67
2023-03-27T21:21:49.607Z,42.88
2023-03-27T21:24:21.059Z,62.03
2023-03-27T21:26:52.385Z,85.13
2023-03-27T21:29:24.675Z,83.82
2023-03-27T21:31:54.906Z,72.28
2023-03-27T21:34:27.272Z,82.43
2023-03-27T21:36:58.342Z,95.55
2023-03-27T21:39:30.011Z,59.38
2023-03-27T21:42:00.495Z,40.85
2023-03-27T21:44:30.799Z,95.15
2023-03-27T21:47:02.229Z,72.07
2023-03-27T21:49:34.297Z,39.53
2023-03-27T21:52:06.005Z,113.38
2023-03-27T21:54:37.021Z,87.78
2023-03-27T21:57:07.613Z,79.60
2023-03-27T21:59:38.468Z,48.35
2023-03-27T22:02:10.382Z,71.75
2023-03-27T22:04:44.403Z,59.55
2023-03-27T22:07:14.919Z,49.85
2023-03-27T22:09:49.307Z,96.22
2023-03-27T22:12:19.692Z,54.20
2023-03-27T22:14:50.460Z,56.47
2023-03-27T22:17:20.857Z,66.88
2023-03-27T22:19:55.243Z,49.10
2023-03-27T22:22:27.082Z,35.97
2023-03-27T22:24:58.777Z,59.92
2023-03-27T22:27:29.216Z,55.80
2023-03-27T22:30:00.238Z,74.78
2023-03-27T22:32:31.869Z,84.20
2023-03-27T22:35:03.176Z,68.70
2023-03-27T22:37:36.729Z,80.03
2023-03-27T22:40:09.846Z,51.83
2023-03-27T22:42:41.119Z,59.75
2023-03-27T22:45:11.838Z,46.00
2023-03-27T22:47:45.258Z,30.08
2023-03-27T22:50:18.024Z,47.00
2023-03-27T22:52:49.818Z,51.55
2023-03-27T22:55:27.548Z,45.70
2023-03-27T22:57:58.965Z,64.10
2023-03-27T23:00:30.647Z,78.25
2023-03-27T23:03:02.999Z,35.70
2023-03-27T23:05:38.955Z,55.55
2023-03-27T23:10:40.870Z,58.85
2023-03-27T23:13:12.515Z,61.40
2023-03-27T23:15:42.738Z,47.65
2023-03-27T23:18:14.575Z,43.28
2023-03-27T23:20:44.940Z,81.55
2023-03-27T23:23:15.980Z,52.72
2023-03-27T23:25:47.454Z,50.22
2023-03-27T23:28:17.962Z,83.60
2023-03-27T23:31:02.743Z,68.65
2023-03-27T23:33:38.652Z,79.07
2023-03-27T23:36:12.785Z,51.92
2023-03-27T23:38:44.330Z,43.58
2023-03-27T23:41:17.553Z,36.78
2023-03-27T23:43:49.459Z,49.22
2023-03-27T23:46:20.743Z,63.92
2023-03-27T23:48:51.909Z,59.83
2023-03-27T23:51:25.953Z,35.08
2023-03-27T23:53:56.342Z,66.85
2023-03-27T23:56:27.182Z,56.53
2023-03-27T23:58:58.174Z,52.90
